Terminal Aerodrome Forecast
Issued by NWS Des Moines, IA

Home | Current Version | Previous Version | Text Only | Print | Product List | Glossary On
Versions: 1 2 3 4 5 6 7 8 9 10 11 12 13 14 15 16 17 18 19 20 21 22 23 24 25 26 27 28 29 30 31 32 33 34 35 36 37
000
FTUS43 KDMX 152320
TAFDSM
TAF
KDSM 152320Z 1600/1624 36009KT P6SM BKN040
     FM160200 36003KT P6SM SKC
     FM160900 VRB02KT 3SM BR FEW005
     FM161400 22005KT P6SM SCT040=

USA.gov is the U.S. government's official web portal to all federal, state and local government web resources and services.